createdAt,value
2018-12-01T00:00:51.717Z,82.53
2018-12-01T00:03:21.543Z,83.04
2018-12-01T00:05:52.066Z,83.25
2018-12-01T00:08:21.665Z,83.49
2018-12-01T00:10:51.496Z,83.87
2018-12-01T00:13:21.285Z,83.96
2018-12-01T00:15:51.059Z,83.96
2018-12-01T00:18:22.044Z,83.88
2018-12-01T00:20:51.886Z,83.86
2018-12-01T00:23:21.704Z,84.12
2018-12-01T00:25:51.704Z,84.14
2018-12-01T00:28:22.728Z,84.16
2018-12-01T00:30:52.349Z,84.21
2018-12-01T00:33:23.424Z,84.03
2018-12-01T00:35:53.323Z,83.92
2018-12-01T00:38:23.647Z,83.77
2018-12-01T00:40:53.600Z,83.73
2018-12-01T00:43:27.944Z,83.76
2018-12-01T00:45:56.566Z,84.03
2018-12-01T00:48:27.019Z,84.10
2018-12-01T00:50:57.967Z,84.05
2018-12-01T00:53:27.811Z,84.16
2018-12-01T00:55:58.294Z,84.17
2018-12-01T00:58:27.943Z,84.33
2018-12-01T01:00:58.307Z,84.26
2018-12-01T01:03:28.083Z,84.46
2018-12-01T01:05:57.955Z,84.44
2018-12-01T01:08:28.238Z,84.54
2018-12-01T01:10:58.793Z,84.71
2018-12-01T01:13:28.630Z,84.64
2018-12-01T01:15:58.604Z,84.49
2018-12-01T01:18:28.211Z,84.95
2018-12-01T01:20:58.107Z,85.00
2018-12-01T01:23:28.084Z,85.12
2018-12-01T01:25:58.882Z,85.45
2018-12-01T01:28:29.276Z,85.53
2018-12-01T01:30:59.303Z,85.69
2018-12-01T01:33:32.657Z,85.74
2018-12-01T01:36:02.623Z,85.93
2018-12-01T01:38:32.766Z,85.77
2018-12-01T01:41:09.289Z,86.01
2018-12-01T01:43:39.247Z,86.33
2018-12-01T01:46:09.667Z,86.41
2018-12-01T01:48:39.383Z,86.26
2018-12-01T01:51:09.016Z,85.92
2018-12-01T01:53:39.510Z,85.60
2018-12-01T01:56:09.722Z,85.67
2018-12-01T01:58:40.238Z,85.81
2018-12-01T02:01:10.357Z,86.06
2018-12-01T02:03:40.105Z,85.94
2018-12-01T02:06:11.824Z,85.73
2018-12-01T02:08:43.577Z,85.95
2018-12-01T02:11:16.156Z,85.91
2018-12-01T02:13:46.377Z,86.09
2018-12-01T02:16:16.302Z,86.01
2018-12-01T02:18:46.284Z,86.32
2018-12-01T02:21:16.172Z,86.26
2018-12-01T02:23:45.983Z,86.20
2018-12-01T02:26:15.907Z,86.07
2018-12-01T02:28:45.978Z,85.89
2018-12-01T02:31:16.228Z,85.85
2018-12-01T02:33:46.865Z,85.59
2018-12-01T02:36:16.702Z,85.68
2018-12-01T02:38:46.448Z,85.70
2018-12-01T02:41:16.586Z,85.45
2018-12-01T02:44:08.805Z,85.52
2018-12-01T02:47:06.797Z,85.68
2018-12-01T02:49:36.900Z,85.36
2018-12-01T02:52:07.610Z,85.40
2018-12-01T02:54:37.255Z,85.43
2018-12-01T02:57:07.200Z,85.79
2018-12-01T02:59:37.884Z,85.47
2018-12-01T03:02:07.926Z,85.65
2018-12-01T03:04:38.494Z,86.09
2018-12-01T03:07:08.508Z,86.19
2018-12-01T03:09:38.350Z,86.32
2018-12-01T03:12:07.888Z,86.36
2018-12-01T03:14:37.878Z,86.43
2018-12-01T03:17:07.683Z,86.64
2018-12-01T03:19:37.500Z,86.68
2018-12-01T03:22:07.069Z,86.48
2018-12-01T03:24:36.866Z,86.62
2018-12-01T03:27:07.704Z,86.23
2018-12-01T03:29:37.790Z,86.05
2018-12-01T03:32:07.919Z,85.80
2018-12-01T03:34:37.792Z,85.47
2018-12-01T03:37:07.788Z,84.90
2018-12-01T03:39:37.898Z,84.66
2018-12-01T03:42:07.604Z,84.41
2018-12-01T03:44:37.377Z,84.06
2018-12-01T03:47:07.622Z,84.11
2018-12-01T03:49:37.461Z,84.07
2018-12-01T03:52:09.078Z,83.88
2018-12-01T03:54:39.044Z,83.75
2018-12-01T03:57:09.074Z,83.56
2018-12-01T03:59:39.305Z,83.41
2018-12-01T04:02:09.424Z,83.21
2018-12-01T04:04:39.328Z,83.20
2018-12-01T04:07:09.116Z,83.13
2018-12-01T04:09:38.698Z,83.16
2018-12-01T04:12:08.335Z,82.98
2018-12-01T04:14:38.316Z,83.17
2018-12-01T04:17:08.710Z,83.26
2018-12-01T04:19:39.610Z,83.11
2018-12-01T04:22:09.215Z,82.85
2018-12-01T04:24:39.129Z,82.79
2018-12-01T04:27:08.879Z,82.52
2018-12-01T04:29:38.977Z,82.61
2018-12-01T04:32:08.691Z,82.61
2018-12-01T04:34:38.654Z,82.60
2018-12-01T04:37:09.224Z,82.51
2018-12-01T04:39:39.920Z,82.44
2018-12-01T04:42:10.131Z,82.32
2018-12-01T04:44:40.441Z,82.07
2018-12-01T04:47:11.169Z,82.26
2018-12-01T04:49:40.487Z,82.20
2018-12-01T04:52:09.830Z,82.01
2018-12-01T04:54:39.231Z,82.00
2018-12-01T04:57:08.606Z,82.06
2018-12-01T04:59:38.049Z,81.82
2018-12-01T05:02:07.332Z,81.86
2018-12-01T05:04:36.766Z,81.85
2018-12-01T05:07:06.115Z,81.64
2018-12-01T05:09:35.480Z,81.55
2018-12-01T05:12:05.362Z,81.49
2018-12-01T05:14:34.826Z,81.49
2018-12-01T05:17:04.252Z,81.23
2018-12-01T05:19:33.584Z,81.16
2018-12-01T05:22:02.938Z,81.08
2018-12-01T05:24:32.284Z,80.86
2018-12-01T05:27:01.690Z,80.87
2018-12-01T05:29:31.170Z,80.73
2018-12-01T05:32:00.505Z,80.46
2018-12-01T05:34:29.912Z,80.54
2018-12-01T05:36:59.360Z,80.64
2018-12-01T05:39:28.702Z,80.77
2018-12-01T05:41:58.069Z,80.91
2018-12-01T05:44:27.571Z,80.82
2018-12-01T05:46:56.910Z,80.86
2018-12-01T05:49:26.419Z,80.74
2018-12-01T05:51:55.768Z,80.86
2018-12-01T05:54:25.119Z,80.59
2018-12-01T05:56:54.697Z,80.73
2018-12-01T05:59:24.253Z,80.84
2018-12-01T06:01:53.540Z,80.67
2018-12-01T06:04:22.939Z,80.70
2018-12-01T06:06:52.350Z,80.72
2018-12-01T06:09:21.732Z,80.78
2018-12-01T06:11:51.068Z,81.00
2018-12-01T06:14:20.566Z,80.96
2018-12-01T06:16:49.975Z,81.15
2018-12-01T06:19:19.340Z,81.43
2018-12-01T06:21:48.791Z,81.84
2018-12-01T06:24:18.187Z,81.99
2018-12-01T06:26:47.545Z,82.11
2018-12-01T06:29:17.104Z,82.61
2018-12-01T06:31:46.484Z,82.99
2018-12-01T06:34:15.808Z,83.35
2018-12-01T06:36:45.192Z,83.16
2018-12-01T06:39:14.671Z,83.45
2018-12-01T06:41:44.106Z,83.16
2018-12-01T06:44:13.445Z,83.11
2018-12-01T06:46:42.827Z,83.01
2018-12-01T06:49:12.128Z,82.98
2018-12-01T06:51:41.480Z,82.99
2018-12-01T06:54:10.828Z,82.88
2018-12-01T06:56:40.334Z,82.68
2018-12-01T06:59:09.819Z,82.49
2018-12-01T07:01:39.194Z,82.39
2018-12-01T07:04:08.625Z,82.40
2018-12-01T07:06:37.960Z,82.28
2018-12-01T07:09:10.558Z,82.34
2018-12-01T07:11:40.076Z,82.67
2018-12-01T07:14:09.521Z,82.47
2018-12-01T07:16:38.898Z,82.57
2018-12-01T07:19:17.774Z,82.50
2018-12-01T07:21:47.154Z,82.27
2018-12-01T07:24:16.441Z,82.34
2018-12-01T07:26:45.781Z,82.16
2018-12-01T07:29:15.179Z,82.16
2018-12-01T07:31:47.426Z,82.07
2018-12-01T07:34:14.057Z,81.89
2018-12-01T07:36:43.870Z,81.77
2018-12-01T07:39:13.199Z,81.62
2018-12-01T07:41:42.684Z,81.15
2018-12-01T07:44:11.999Z,80.89
2018-12-01T07:46:41.393Z,80.71
2018-12-01T07:49:10.733Z,80.67
2018-12-01T07:51:40.139Z,80.59
2018-12-01T07:54:09.595Z,80.53
2018-12-01T07:56:39.080Z,80.42
2018-12-01T07:59:08.525Z,80.43
2018-12-01T08:01:37.921Z,80.52
2018-12-01T08:04:07.394Z,80.31
2018-12-01T08:06:36.817Z,80.02
2018-12-01T08:09:07.999Z,80.50
2018-12-01T08:11:37.391Z,79.27
2018-12-01T08:14:06.789Z,78.94
2018-12-01T08:16:36.109Z,79.06
2018-12-01T08:19:05.717Z,79.20
2018-12-01T08:21:35.054Z,79.35
2018-12-01T08:24:04.407Z,79.03
2018-12-01T08:26:33.771Z,78.87
2018-12-01T08:29:03.151Z,79.15
2018-12-01T08:31:32.509Z,79.13
2018-12-01T08:34:01.961Z,79.32
2018-12-01T08:36:31.377Z,79.44
2018-12-01T08:39:00.759Z,79.49
2018-12-01T08:41:30.163Z,79.31
2018-12-01T08:43:59.538Z,79.05
2018-12-01T08:46:29.117Z,78.90
2018-12-01T08:48:58.513Z,79.17
2018-12-01T08:51:27.947Z,78.99
2018-12-01T08:53:57.311Z,78.97
2018-12-01T08:56:26.751Z,78.81
2018-12-01T08:58:56.164Z,78.40
2018-12-01T09:01:25.559Z,78.23
2018-12-01T09:03:54.901Z,78.10
2018-12-01T09:06:24.307Z,78.20
2018-12-01T09:08:53.879Z,77.83
2018-12-01T09:11:23.168Z,77.66
2018-12-01T09:13:52.553Z,77.62
2018-12-01T09:16:21.932Z,77.84
2018-12-01T09:18:52.168Z,78.09
2018-12-01T09:21:21.009Z,78.26
2018-12-01T09:23:50.797Z,78.28
2018-12-01T09:26:20.159Z,77.97
2018-12-01T09:28:50.178Z,77.80
2018-12-01T09:31:19.563Z,77.66
2018-12-01T09:33:48.981Z,77.50
2018-12-01T09:36:18.318Z,77.73
2018-12-01T09:38:47.629Z,77.64
2018-12-01T09:41:17.159Z,77.26
2018-12-01T09:43:46.501Z,77.06
2018-12-01T09:46:15.815Z,76.79
2018-12-01T09:48:45.145Z,76.43
2018-12-01T09:51:14.563Z,76.11
2018-12-01T09:53:44.024Z,75.50
2018-12-01T09:56:13.487Z,75.15
2018-12-01T09:58:42.806Z,75.32
2018-12-01T10:01:12.310Z,74.72
2018-12-01T10:03:41.751Z,74.37
2018-12-01T10:06:11.084Z,74.64
2018-12-01T10:08:40.432Z,74.49
2018-12-01T10:11:09.864Z,74.23
2018-12-01T10:13:39.426Z,74.23
2018-12-01T10:16:08.768Z,74.17
2018-12-01T10:18:38.163Z,74.17
2018-12-01T10:21:07.485Z,74.28
2018-12-01T10:23:36.833Z,74.43
2018-12-01T10:26:06.581Z,74.47
2018-12-01T10:28:35.913Z,74.54
2018-12-01T10:31:08.530Z,74.42
2018-12-01T10:33:40.829Z,74.27
2018-12-01T10:36:10.267Z,74.15
2018-12-01T10:38:39.706Z,74.29
2018-12-01T10:41:09.073Z,73.38
2018-12-01T10:43:38.416Z,73.23
2018-12-01T10:46:07.862Z,73.04
2018-12-01T10:48:37.147Z,72.66
2018-12-01T10:51:07.061Z,72.58
2018-12-01T10:53:36.452Z,72.55
2018-12-01T10:56:06.059Z,72.32
2018-12-01T10:58:35.513Z,71.38
2018-12-01T11:01:23.044Z,70.91
2018-12-01T11:03:52.792Z,70.57
2018-12-01T11:06:22.316Z,69.69
2018-12-01T11:08:51.909Z,69.88
2018-12-01T11:11:21.241Z,69.07
2018-12-01T11:13:50.768Z,68.84
2018-12-01T11:16:20.129Z,66.90
2018-12-01T11:18:49.563Z,65.65
2018-12-01T11:21:19.420Z,63.73
2018-12-01T11:23:49.045Z,63.93
2018-12-01T11:26:18.850Z,63.01
2018-12-01T11:28:48.318Z,63.56
2018-12-01T11:31:17.867Z,63.89
2018-12-01T11:33:47.433Z,62.65
2018-12-01T11:36:16.937Z,61.22
2018-12-01T11:38:46.330Z,60.95
2018-12-01T11:41:15.799Z,59.50
2018-12-01T11:43:45.442Z,58.15
2018-12-01T11:46:14.802Z,55.94
2018-12-01T11:48:44.183Z,57.41
2018-12-01T11:51:13.521Z,57.00
2018-12-01T11:53:42.993Z,56.10
2018-12-01T11:56:12.335Z,55.75
2018-12-01T11:58:41.881Z,55.75
2018-12-01T12:01:11.240Z,54.22
2018-12-01T12:03:40.669Z,52.80
2018-12-01T12:06:10.101Z,51.57
2018-12-01T12:08:39.471Z,50.43
2018-12-01T12:11:08.725Z,48.03
2018-12-01T12:13:38.056Z,49.33
2018-12-01T12:16:07.399Z,49.45
2018-12-01T12:18:36.781Z,49.05
2018-12-01T12:21:06.231Z,49.85
2018-12-01T12:23:35.707Z,50.54
2018-12-01T12:26:04.955Z,50.24
2018-12-01T12:28:34.449Z,51.07
2018-12-01T12:31:03.831Z,51.38
2018-12-01T12:33:33.210Z,51.60
2018-12-01T12:36:02.585Z,50.33
2018-12-01T12:38:32.081Z,48.84
2018-12-01T12:41:01.488Z,48.80
2018-12-01T12:43:30.987Z,49.98
2018-12-01T12:46:00.365Z,51.01
2018-12-01T12:48:29.779Z,49.85
2018-12-01T12:50:59.246Z,50.23
2018-12-01T12:53:28.577Z,50.70
2018-12-01T12:55:58.173Z,49.25
2018-12-01T12:58:27.513Z,50.03
2018-12-01T13:00:57.079Z,50.66
2018-12-01T13:03:26.479Z,50.22
2018-12-01T13:05:56.194Z,50.04
2018-12-01T13:08:25.779Z,50.93
2018-12-01T13:10:55.657Z,53.06
2018-12-01T13:13:25.124Z,53.08
2018-12-01T13:15:54.769Z,51.16
2018-12-01T13:18:24.126Z,51.09
2018-12-01T13:20:55.657Z,50.19
2018-12-01T13:23:25.284Z,50.23
2018-12-01T13:25:54.633Z,50.44
2018-12-01T13:28:24.999Z,50.66
2018-12-01T13:30:59.159Z,51.32
2018-12-01T13:33:28.894Z,50.49
2018-12-01T13:35:58.469Z,51.49
2018-12-01T13:38:28.014Z,51.09
2018-12-01T13:40:57.393Z,51.92
2018-12-01T13:43:26.868Z,52.46
2018-12-01T13:45:56.202Z,53.96
2018-12-01T13:48:25.730Z,55.07
2018-12-01T13:50:55.074Z,55.65
2018-12-01T13:53:24.624Z,55.40
2018-12-01T13:55:54.290Z,56.63
2018-12-01T13:58:23.607Z,57.46
2018-12-01T14:00:53.087Z,57.73
2018-12-01T14:03:22.457Z,57.87
2018-12-01T14:05:51.709Z,57.76
2018-12-01T14:08:21.007Z,57.84
2018-12-01T14:10:51.335Z,58.17
2018-12-01T14:13:20.875Z,58.58
2018-12-01T14:15:50.221Z,58.30
2018-12-01T14:18:19.553Z,58.65
2018-12-01T14:20:48.861Z,58.65
2018-12-01T14:23:18.238Z,59.27
2018-12-01T14:25:48.146Z,59.86
2018-12-01T14:28:17.510Z,60.04
2018-12-01T14:30:46.810Z,60.76
2018-12-01T14:33:16.628Z,60.94
2018-12-01T14:35:45.965Z,61.64
2018-12-01T14:38:18.037Z,62.30
2018-12-01T14:40:54.611Z,62.60
2018-12-01T14:43:24.036Z,63.08
2018-12-01T14:45:53.535Z,63.62
2018-12-01T14:48:23.245Z,64.44
2018-12-01T14:50:52.586Z,64.83
2018-12-01T14:53:22.367Z,65.63
2018-12-01T14:55:52.082Z,65.63
2018-12-01T14:58:21.620Z,66.40
2018-12-01T15:00:50.953Z,66.87
2018-12-01T15:03:20.556Z,67.46
2018-12-01T15:05:50.398Z,67.55
2018-12-01T15:08:20.090Z,68.27
2018-12-01T15:10:49.557Z,68.68
2018-12-01T15:13:18.899Z,68.92
2018-12-01T15:15:48.351Z,69.53
2018-12-01T15:18:19.773Z,69.85
2018-12-01T15:20:47.562Z,69.85
2018-12-01T15:23:16.944Z,69.98
2018-12-01T15:25:46.383Z,70.40
2018-12-01T15:28:15.948Z,70.59
2018-12-01T15:30:45.515Z,70.86
2018-12-01T15:33:16.115Z,71.26
2018-12-01T15:35:46.697Z,71.26
2018-12-01T15:38:16.640Z,71.81
2018-12-01T15:40:55.203Z,71.97
2018-12-01T15:43:24.549Z,72.54
2018-12-01T15:45:53.916Z,72.54
2018-12-01T15:48:23.770Z,73.01
2018-12-01T15:50:53.220Z,72.88
2018-12-01T15:53:22.656Z,72.98
2018-12-01T15:55:52.011Z,73.39
2018-12-01T15:58:21.548Z,73.95
2018-12-01T16:00:51.178Z,74.07
2018-12-01T16:03:20.677Z,74.60
2018-12-01T16:05:50.984Z,75.04
2018-12-01T16:08:20.317Z,74.89
2018-12-01T16:10:49.670Z,75.04
2018-12-01T16:13:23.258Z,75.32
2018-12-01T16:16:03.494Z,75.20
2018-12-01T16:18:32.868Z,75.27
2018-12-01T16:21:02.360Z,75.06
2018-12-01T16:23:31.806Z,75.07
2018-12-01T16:26:01.295Z,75.10
2018-12-01T16:28:30.770Z,75.32
2018-12-01T16:31:00.161Z,75.31
2018-12-01T16:33:29.545Z,75.11
2018-12-01T16:35:59.032Z,75.25
2018-12-01T16:38:31.248Z,75.33
2018-12-01T16:41:02.615Z,75.48
2018-12-01T16:43:34.902Z,75.29
2018-12-01T16:46:04.273Z,75.37
2018-12-01T16:48:33.676Z,75.51
2018-12-01T16:51:03.426Z,75.47
2018-12-01T16:53:32.788Z,75.24
2018-12-01T16:56:02.494Z,75.32
2018-12-01T16:58:31.864Z,75.49
2018-12-01T17:01:01.499Z,75.36
2018-12-01T17:03:31.126Z,75.50
2018-12-01T17:06:03.245Z,75.33
2018-12-01T17:08:32.630Z,75.47
2018-12-01T17:11:01.998Z,75.22
2018-12-01T17:13:31.387Z,75.19
2018-12-01T17:16:00.761Z,75.16
2018-12-01T17:18:30.227Z,75.39
2018-12-01T17:20:59.960Z,75.20
2018-12-01T17:23:29.724Z,74.86
2018-12-01T17:25:59.231Z,74.87
2018-12-01T17:28:29.082Z,74.50
2018-12-01T17:30:58.782Z,74.27
2018-12-01T17:33:28.091Z,74.19
2018-12-01T17:35:57.547Z,74.19
2018-12-01T17:38:27.404Z,73.79
2018-12-01T17:41:17.237Z,73.79
2018-12-01T17:44:01.294Z,73.52
2018-12-01T17:46:30.791Z,73.19
2018-12-01T17:49:00.268Z,72.96
2018-12-01T17:51:29.696Z,72.97
2018-12-01T17:54:05.169Z,72.94
2018-12-01T17:56:34.568Z,72.94
2018-12-01T17:59:03.922Z,73.02
2018-12-01T18:01:33.479Z,73.20
2018-12-01T18:04:02.995Z,73.41
2018-12-01T18:06:32.770Z,73.38
2018-12-01T18:09:02.181Z,73.41
2018-12-01T18:11:31.657Z,73.38
2018-12-01T18:14:01.163Z,73.42
2018-12-01T18:16:30.622Z,73.31
2018-12-01T18:19:00.098Z,73.20
2018-12-01T18:21:29.681Z,73.00
2018-12-01T18:23:59.231Z,73.20
2018-12-01T18:26:28.842Z,73.11
2018-12-01T18:28:58.469Z,73.31
2018-12-01T18:31:31.518Z,73.37
2018-12-01T18:34:12.630Z,73.38
2018-12-01T18:36:41.994Z,73.31
2018-12-01T18:39:13.784Z,73.31
2018-12-01T18:41:43.171Z,73.54
2018-12-01T18:44:12.631Z,73.49
2018-12-01T18:46:42.113Z,73.65
2018-12-01T18:49:11.495Z,73.71
2018-12-01T18:51:40.882Z,73.62
2018-12-01T18:54:10.350Z,73.70
2018-12-01T18:56:40.004Z,73.80
2018-12-01T18:59:09.389Z,73.60
2018-12-01T19:01:38.795Z,73.63
2018-12-01T19:04:08.397Z,73.58
2018-12-01T19:06:37.903Z,73.49
2018-12-01T19:09:08.557Z,73.41
2018-12-01T19:11:37.954Z,73.39
2018-12-01T19:14:07.623Z,73.03
2018-12-01T19:16:37.280Z,73.02
2018-12-01T19:19:06.807Z,72.99
2018-12-01T19:21:36.410Z,72.86
2018-12-01T19:24:06.111Z,72.88
2018-12-01T19:26:35.605Z,72.78
2018-12-01T19:29:05.520Z,72.69
2018-12-01T19:31:35.105Z,72.68
2018-12-01T19:34:04.841Z,72.54
2018-12-01T19:36:34.374Z,72.57
2018-12-01T19:39:04.483Z,72.76
2018-12-01T19:41:34.156Z,72.79
2018-12-01T19:44:03.704Z,72.74
2018-12-01T19:46:33.581Z,72.53
2018-12-01T19:49:03.332Z,72.54
2018-12-01T19:51:32.805Z,72.51
2018-12-01T19:54:03.514Z,72.72
2018-12-01T19:56:33.088Z,72.63
2018-12-01T19:59:02.736Z,72.82
2018-12-01T20:01:32.113Z,72.71
2018-12-01T20:04:01.457Z,72.66
2018-12-01T20:06:30.891Z,72.79
2018-12-01T20:09:00.883Z,72.67
2018-12-01T20:11:30.272Z,72.79
2018-12-01T20:14:01.530Z,72.74
2018-12-01T20:16:36.327Z,72.85
2018-12-01T20:19:06.712Z,72.74
2018-12-01T20:21:36.018Z,72.70
2018-12-01T20:24:06.381Z,72.33
2018-12-01T20:26:35.897Z,72.06
2018-12-01T20:29:06.120Z,71.90
2018-12-01T20:31:35.748Z,71.96
2018-12-01T20:34:05.354Z,71.90
2018-12-01T20:36:47.306Z,71.92
2018-12-01T20:39:32.717Z,72.05
2018-12-01T20:42:02.164Z,71.76
2018-12-01T20:44:31.567Z,70.60
2018-12-01T20:47:00.920Z,70.98
2018-12-01T20:49:30.348Z,71.01
2018-12-01T20:51:59.862Z,71.10
2018-12-01T20:54:45.796Z,71.24
2018-12-01T20:57:29.614Z,71.47
2018-12-01T20:59:59.446Z,71.52
2018-12-01T21:02:28.848Z,71.62
2018-12-01T21:04:58.204Z,71.65
2018-12-01T21:07:27.679Z,71.86
2018-12-01T21:09:57.167Z,72.17
2018-12-01T21:12:26.618Z,72.15
2018-12-01T21:14:56.046Z,72.46
2018-12-01T21:17:25.503Z,72.35
2018-12-01T21:19:54.926Z,72.47
2018-12-01T21:22:24.289Z,72.37
2018-12-01T21:24:53.816Z,72.51
2018-12-01T21:27:23.202Z,72.56
2018-12-01T21:29:52.626Z,72.58
2018-12-01T21:32:22.684Z,72.69
2018-12-01T21:34:52.088Z,72.73
2018-12-01T21:37:21.507Z,72.85
2018-12-01T21:39:51.206Z,73.20
2018-12-01T21:42:20.644Z,73.21
2018-12-01T21:44:50.078Z,73.06
2018-12-01T21:47:19.789Z,73.19
2018-12-01T21:49:49.210Z,73.09
2018-12-01T21:52:18.573Z,73.10
2018-12-01T21:54:48.580Z,73.16
2018-12-01T21:57:18.047Z,73.06
2018-12-01T21:59:47.417Z,72.86
2018-12-01T22:02:17.359Z,72.91
2018-12-01T22:04:46.864Z,73.13
2018-12-01T22:07:16.293Z,73.01
2018-12-01T22:09:45.777Z,73.09
2018-12-01T22:12:15.226Z,73.25
2018-12-01T22:14:44.621Z,73.61
2018-12-01T22:17:13.923Z,74.16
2018-12-01T22:19:43.278Z,74.66
2018-12-01T22:22:12.658Z,74.89
2018-12-01T22:24:42.070Z,75.43
2018-12-01T22:27:11.386Z,75.33
2018-12-01T22:29:40.791Z,75.27
2018-12-01T22:32:10.378Z,75.30
2018-12-01T22:34:39.913Z,75.20
2018-12-01T22:37:09.208Z,74.95
2018-12-01T22:39:38.701Z,74.72
2018-12-01T22:42:08.394Z,74.18
2018-12-01T22:44:38.124Z,73.94
2018-12-01T22:47:07.761Z,73.48
2018-12-01T22:49:37.270Z,73.39
2018-12-01T22:52:07.178Z,73.04
2018-12-01T22:54:36.590Z,73.42
2018-12-01T22:57:06.638Z,73.42
2018-12-01T22:59:36.166Z,74.29
2018-12-01T23:02:06.434Z,75.21
2018-12-01T23:04:36.246Z,75.52
2018-12-01T23:07:05.871Z,75.63
2018-12-01T23:09:35.506Z,75.70
2018-12-01T23:12:04.840Z,75.77
2018-12-01T23:14:34.149Z,75.39
2018-12-01T23:17:03.468Z,75.26
2018-12-01T23:19:32.865Z,74.93
2018-12-01T23:22:02.926Z,74.53
2018-12-01T23:24:32.290Z,74.58
2018-12-01T23:27:01.744Z,74.29
2018-12-01T23:29:31.378Z,73.99
2018-12-01T23:32:00.902Z,73.56
2018-12-01T23:34:30.348Z,73.11
2018-12-01T23:37:00.440Z,72.71
2018-12-01T23:39:29.964Z,72.62
2018-12-01T23:42:04.905Z,72.18
2018-12-01T23:44:34.218Z,72.18
2018-12-01T23:47:03.718Z,72.02
2018-12-01T23:49:33.110Z,71.34
2018-12-01T23:52:02.479Z,71.39
2018-12-01T23:54:31.881Z,71.02
2018-12-01T23:57:01.232Z,70.86
2018-12-01T23:59:30.654Z,70.86
